Overview Statistics Trail Chart Weather Telemetry Raw packets
 

This is the latest recevied packets stored in our database for station/object OE3EFR-01. If no packets are shown the sender has not sent any packets the latest 24 hours.

If you compare the raw packets with similar data from other websites it may differ (especially the path), the reason is that we are not collecting packets from the same APRS-IS servers. Each APRS-IS server performes duplicate filtering, and which packet that is considered to be a duplicate may differ depending on which APRS-IS server you receive your data from.

<< 1 2 >>

1777977176: OE3EFR-01>APRSMC,TCPIP*,qAR,OE3XIR-12::OE3EFR-01:PARM.Press,Temp.in,Hum,QNH,Temp.out,track,-,-,-,-,-,-,-

1777977176: OE3EFR-01>APRSMC,TCPIP*,qAR,OE3XIR-12:T#401,980.0,26.9,34.0,0.0,0.0,00000000

1777977176: OE3EFR-01>APRSMC,TCPIP*,qAR,OE3XIR-12::OE3EFR-01:UNIT.hPa,C deg,%,hPa,C deg,Y/N,O/N,O/N,O/N,O/N,O/N,O/N,O/N

1777977176: OE3EFR-01>APRSMC,TCPIP*,qAR,OE3XIR-12::OE3EFR-01:EQNS.0,1,0,0,1,0,0,1,0,0,1,0,0,1,0

1777977176: OE3EFR-01>APRSMC,TCPIP*,qAR,OE3XIR-12:!4835.49N/01556.11E#-01#OE3EFR/B=097/A=000787

1777975373: OE3EFR-01>APRSMC,TCPIP*,qAR,OE3XOC-12:T#400,980.4,25.8,35.1,0.0,0.0,00000000

1777975373: OE3EFR-01>APRSMC,TCPIP*,qAR,OE3XOC-12:!4835.49N/01556.11E#-01#OE3EFR/B=090/A=000787

1777966319: OE3EFR-01>APRSMC,TCPIP*,qAR,OE3XOC-12::OE3EFR-01:PARM.Press,Temp.in,Hum,QNH,Temp.out,track,-,-,-,-,-,-,-

1777966319: OE3EFR-01>APRSMC,TCPIP*,qAR,OE3XOC-12:T#231,981.5,22.4,40.7,0.0,0.0,00000000

1777966319: OE3EFR-01>APRSMC,TCPIP*,qAR,OE3XOC-12::OE3EFR-01:UNIT.hPa,C deg,%,hPa,C deg,Y/N,O/N,O/N,O/N,O/N,O/N,O/N,O/N

1777966319: OE3EFR-01>APRSMC,TCPIP*,qAR,OE3XOC-12::OE3EFR-01:EQNS.0,1,0,0,1,0,0,1,0,0,1,0,0,1,0

1777966319: OE3EFR-01>APRSMC,TCPIP*,qAR,OE3XOC-12:!4835.49N/01556.11E#-01#OE3EFR/B=096/A=000787

1777955394: OE3EFR-01>APRSMC,TCPIP*,qAR,OE3XOC-12:T#230,981.5,13.4,54.8,0.0,0.0,00000000

1777955394: OE3EFR-01>APRSMC,TCPIP*,qAR,OE3XOC-12:!4835.49N/01556.11E#-01#OE3EFR/B=100/A=000787

1777948137: OE3EFR-01>APRSMC,TCPIP*,qAR,OE3XIR-12:T#229,981.8,14.0,50.5,0.0,0.0,00000000

1777948137: OE3EFR-01>APRSMC,TCPIP*,qAR,OE3XIR-12:!4835.49N/01556.11E#-01#OE3EFR/B=100/A=000787

1777946316: OE3EFR-01>APRSMC,TCPIP*,qAR,OE3XOC-12:T#228,982.0,14.4,49.0,0.0,0.0,00000000

1777946316: OE3EFR-01>APRSMC,TCPIP*,qAR,OE3XOC-12:!4835.49N/01556.11E#-01#OE3EFR/B=100/A=000787

1777942689: OE3EFR-01>APRSMC,TCPIP*,qAR,OE3XOC-12:T#227,982.3,15.8,46.2,0.0,0.0,00000000

1777942689: OE3EFR-01>APRSMC,TCPIP*,qAR,OE3XOC-12:!4835.49N/01556.11E#-01#OE3EFR/B=092/A=000787

1777940875: OE3EFR-01>APRSMC,TCPIP*,qAR,OE3XOC-12:T#226,982.3,16.5,44.9,0.0,0.0,00000000

1777940875: OE3EFR-01>APRSMC,TCPIP*,qAR,OE3XOC-12:!4835.49N/01556.11E#-01#OE3EFR/B=097/A=000787

1777939056: OE3EFR-01>APRSMC,TCPIP*,qAR,OE3XOC-12:T#225,982.3,17.2,43.8,0.0,0.0,00000000

1777939056: OE3EFR-01>APRSMC,TCPIP*,qAR,OE3XOC-12:!4835.49N/01556.11E#-01#OE3EFR/B=100/A=000787

1777937244: OE3EFR-01>APRSMC,TCPIP*,qAR,OE3XOC-12:T#224,982.5,17.8,43.7,0.0,0.0,00000000